Airfield :
LOGIN :

Register | Disclaimer

   EN    FR    IT 

 










Legend :    VFR   Marginal VFR   IFR   Intensive IFR   Very Intensive IFR
Visi :
Ceiling :
>= 8 km
>= 3000ft
5 to 8 km
1000 to 3000 ft
1500m to 5 km
500 to 1000 ft
800 to 1500m
200 to 500 ft
< 800m
< 200 ft
Symbols :   Thunderstorms  Fog  Heavy snow  Heavy precipitations  Wind > 20 kt
SIGMETs :     Misc.  Thunderstorms  Icing  Turbulence  Mountain Waves  Volcanic Ashes







- Airport Elevation : 1363 ft


ETIC - Grafenwohr Army Air Field

CURRENT METAR :
  • 160656Z AUTO 23006KT 9999 OVC015 03/01 A2993 RMK AO2 SLPNO T00290014 $

EXPIRED METARs :
  • 160556Z AUTO 24005KT 9999 OVC015 03/02 A2994 RMK AO2 SLPNO 60000 T00300017 10033 20027 57007 $
  • 160526Z AUTO 25007KT 9999 BKN015 BKN023 OVC030 03/02 A2995 RMK AO2 SLPNO $
  • 160456Z AUTO 26006KT 9999 OVC013 03/02 A2995 RMK AO2 UPB20E22RAB22E37DZB37E38 SLP161 P0000 T00280022 $
  • 160438Z AUTO 26005KT 9999 OVC013 03/02 A2995 RMK AO2 UPB20E22RAB22E37DZB37E38 SLP161 $

TAF TAF ETIC
Valid from the 16 at 04:00 until the 17 at 10:00 UTC


160400Z 1604/1710 26008KT 9999 OVC013 620134 QNH2995INS
BECMG 1613/1614 25008KT 9999 SCT040 QNH2983INS
BECMG 1700/1701 27010G15KT 9999 BKN015 OVC025 620156 QNH2976INS TX02/1612Z TNM01/1620Z
No reported NOTAMs for that airfield.



MET'MAP, your aeronautical weather chart ! - Copyright ORBIFLY December 2007 - Disclaimer

ORBIFLY MET'MAP TEAM :

Programming & Development : Alexandra Zaïnal
Concept & Development : Baudouin d'Aumeries
Co-Development & Prog : Marc-Olivier Méhu
Technical & hardware support : Manuel Goepfert

Contact : metmap@orbifly.com




SOURCES & CREDITS :

   NOAA